TNCM

Details ICAO TNCM (SXM)
Name Princess Juliana Intl
Region Caribbean Netherlands, Aruba, Curaçao, Sint Maarten
Timezone Unknown
Plans Departing 6017
Arriving 8674
Stats Elevation 14 ft / 4 m (AMSL)
Location 18.040900° -63.108900°
Runways 1
Magnetic Variation 14.392° W
Sunrise 2020-05-27 09:37:59 UTC / 2020-05-27 09:37:59 Local
Sunset 2020-05-27 22:44:14 UTC / 2020-05-27 22:44:14 Local
Advertisement - Login to hide

Runways

ID Width Length Bearing (true/mag) Surface Threshold Overrun Markings Lighting
10 148 ft / 45 m 7,553 ft / 2,302 m 81.44° / 95.83° ASPHALT 331 ft / 101 m 164 ft / 50 m PREC-APP EDGE THRESHOLD REIL-OMNI
28 148 ft / 45 m 7,553 ft / 2,302 m 261.45° / 275.84° ASPHALT 0 ft / 0 m 200 ft / 61 m APP EDGE THRESHOLD

Map

Weather


0- 5 10 15 20 25 30 35+ Temperature / °C

Clouds and Precipitation
Forecast for 2020-05-27 12:00 UTC. Updated 3 hours ago

Ground ~20,000 ft ~40,000 ft Winds

METAR

TNCM 271200Z 11010KT 9999 SCT018 29/24 Q1016 NOSIG

TAF

TAF TNCM 271138Z 2712/2812 12009KT P6SM VCSH FEW018 FEW070 FM272130 09008KT P6SM FEW018 FM280800 09010KT P6SM FEW018

Frequencies

Tower 118.70 MHz Juliana Tower
Departure 128.95 MHz Juliana Departure
Approach 128.95 MHz Juliana Approach
Recorded 127.65 MHz ATIS
Warning: Do not use this data for real-world aviation or navigation. No guarantee of current accuracy is given.